To NAV CANADA Home Page Login to a new session Search on AWWS site Disclaimer Vers la page française équivalente Tips FAQ What's new on the site To the Forecasts and Observations / NOTAM section To "File a Flight Plan" website Publications and other links Update of the User's profile FIC Telephone Numbers My Weather Data Folder Route Weather Data Regional Weather Data Local Weather Data To the Forecasts and Observations / NOTAM section
Request Generated 01/21/2018 at 20:11:14 UTC . Weather information available at that time is displayed.

METAR/TAF

If you find any discrepancies between the coded METAR/TAF and the plain language METAR/TAF please use the coded METAR/TAF. LWIS bulletins are not decoded in plain language.

CALGARY/SPRINGBANK/AB    (show WxCam)

METAR CYBW 212000Z AUTO 16008KT 9SM CLR 01/M08 A2972 RMK SLP115=
METAR
LOCATION
CYBW - CALGARY/SPRINGBANK/AB
DATE - TIME
21 JANUARY 2018 - 2000 UTC
WIND
160 TRUE @ 8  KNOTS
VISIBILITY
9 STAT.  MILES
RUNWAY VISUAL RANGE
WEATHER
CLOUDINESS
CLEAR SKY
TEMP / DEWPOINT
1 C / -8 C
ALTIMETER
29.72 IN HG
RECENT WEATHER
WIND SHEAR

METAR CYBW 211900Z AUTO 24004KT 9SM CLR 01/M08 A2975 RMK SLP123=
METAR
LOCATION
CYBW - CALGARY/SPRINGBANK/AB
DATE - TIME
21 JANUARY 2018 - 1900 UTC
WIND
240 TRUE @ 4  KNOTS
VISIBILITY
9 STAT.  MILES
RUNWAY VISUAL RANGE
WEATHER
CLOUDINESS
CLEAR SKY
TEMP / DEWPOINT
1 C / -8 C
ALTIMETER
29.75 IN HG
RECENT WEATHER
WIND SHEAR

METAR CYBW 211800Z AUTO 19003KT 9SM OVC180 M01/M08 A2977 RMK SLP137=
METAR
LOCATION
CYBW - CALGARY/SPRINGBANK/AB
DATE - TIME
21 JANUARY 2018 - 1800 UTC
WIND
190 TRUE @ 3  KNOTS
VISIBILITY
9 STAT.  MILES
RUNWAY VISUAL RANGE
WEATHER
CLOUDINESS
OVERCAST 18000  FT
TEMP / DEWPOINT
-1 C / -8 C
ALTIMETER
29.77 IN HG
RECENT WEATHER
WIND SHEAR

TAF CYBW 211738Z 2118/2205 VRB03KT P6SM FEW050 BKN200 BECMG 2120/2122 19010KT RMK FCST BASED ON AUTO OBS. NXT FCST BY 220000Z=
TAF
LOCATION

CYBW - CALGARY/SPRINGBANK/AB
VALIDITY [UTC]
21 JAN - 1738 to
22 JAN - 0500
 
TIMES
[UTC]
WIND
[DEGREES TRUE]
VISIBILITY
[STAT. MILES]
WEATHER
CLOUDINESS
[FEET AGL]
 
21 JAN - 1800 to
22 JAN - 0500
VARIABLE @ 3 KNOTS
6+
NIL
5000 FEW
20000 BROKEN
BECOMING
21 JAN - 2000 to
21 JAN - 2200
190 @ 10 KNOTS
 
 
 
REMARKS
THE FORECAST IS BASED ON AUTOMATIC OBSERVATIONS - THE NEXT FORECAST WILL BE ISSUED BY 0000 UTC ON DAY 22


Your time UTC time
Weather data provided by Environment Canada and NAV CANADA